createdAt,value
2018-05-06T00:02:03.452Z,15.80
2018-05-06T00:07:06.759Z,15.70
2018-05-06T00:12:10.054Z,15.60
2018-05-06T00:17:13.354Z,15.60
2018-05-06T00:22:17.359Z,16.30
2018-05-06T00:27:21.443Z,16.60
2018-05-06T00:32:24.743Z,16.50
2018-05-06T00:37:28.068Z,16.50
2018-05-06T00:42:36.304Z,16.30
2018-05-06T00:47:44.245Z,16.00
2018-05-06T00:52:49.420Z,15.30
2018-05-06T00:57:54.805Z,15.20
2018-05-06T01:03:00.641Z,15.00
2018-05-06T01:08:03.968Z,14.80
2018-05-06T01:13:07.272Z,14.80
2018-05-06T01:18:10.604Z,15.10
2018-05-06T01:23:14.699Z,15.70
2018-05-06T01:28:17.994Z,15.50
2018-05-06T01:33:21.295Z,15.00
2018-05-06T01:38:24.630Z,14.50
2018-05-06T01:43:28.800Z,14.40
2018-05-06T01:48:32.099Z,14.60
2018-05-06T01:53:39.988Z,14.50
2018-05-06T01:58:44.175Z,14.20
2018-05-06T02:03:47.439Z,14.30
2018-05-06T02:08:51.499Z,14.20
2018-05-06T02:13:54.767Z,14.00
2018-05-06T02:18:58.036Z,14.20
2018-05-06T02:24:01.317Z,14.40
2018-05-06T02:29:04.603Z,14.60
2018-05-06T02:34:07.874Z,15.10
2018-05-06T02:39:11.392Z,15.00
2018-05-06T02:44:15.424Z,14.50
2018-05-06T02:49:18.699Z,14.40
2018-05-06T02:54:21.977Z,14.50
2018-05-06T02:59:25.465Z,14.60
2018-05-06T03:04:29.487Z,14.10
2018-05-06T03:09:32.739Z,14.10
2018-05-06T03:14:36.003Z,13.70
2018-05-06T03:19:40.060Z,13.70
2018-05-06T03:24:43.331Z,13.60
2018-05-06T03:29:47.359Z,13.40
2018-05-06T03:34:51.399Z,13.50
2018-05-06T03:39:54.656Z,13.50
2018-05-06T03:44:57.918Z,13.30
2018-05-06T03:50:01.193Z,13.20
2018-05-06T03:55:06.158Z,13.10
2018-05-06T04:00:21.207Z,13.00
2018-05-06T04:05:25.173Z,12.90
2018-05-06T04:10:28.425Z,12.80
2018-05-06T04:15:31.692Z,13.20
2018-05-06T04:20:35.700Z,13.20
2018-05-06T04:25:38.972Z,13.10
2018-05-06T04:30:42.227Z,13.30
2018-05-06T04:35:46.258Z,13.80
2018-05-06T04:40:49.520Z,13.80
2018-05-06T04:45:52.796Z,14.10
2018-05-06T04:50:56.082Z,14.80
2018-05-06T04:56:00.132Z,15.50
2018-05-06T05:01:03.403Z,15.50
2018-05-06T05:06:06.672Z,15.00
2018-05-06T05:11:09.948Z,14.70
2018-05-06T05:16:13.245Z,15.30
2018-05-06T05:21:17.271Z,16.10
2018-05-06T05:26:20.557Z,16.10
2018-05-06T05:31:23.812Z,16.20
2018-05-06T05:36:27.076Z,16.40
2018-05-06T05:41:30.334Z,16.90
2018-05-06T05:46:33.597Z,17.40
2018-05-06T05:51:37.640Z,18.10
2018-05-06T05:56:40.925Z,18.10
2018-05-06T06:01:44.268Z,18.60
2018-05-06T06:06:47.539Z,18.80
2018-05-06T06:11:50.784Z,19.30
2018-05-06T06:16:54.047Z,19.50
2018-05-06T06:21:57.295Z,19.50
2018-05-06T06:27:00.573Z,20.10
2018-05-06T06:32:03.843Z,20.80
2018-05-06T06:37:07.112Z,21.40
2018-05-06T06:42:10.383Z,21.70
2018-05-06T06:47:13.642Z,21.80
2018-05-06T06:52:16.910Z,21.80
2018-05-06T06:57:20.163Z,22.50
2018-05-06T07:02:24.223Z,23.00
2018-05-06T07:07:27.487Z,22.90
2018-05-06T07:12:30.760Z,23.40
2018-05-06T07:17:34.019Z,23.90
2018-05-06T07:22:37.280Z,24.20
2018-05-06T07:27:41.748Z,25.20
2018-05-06T07:32:45.045Z,25.50
2018-05-06T07:37:49.094Z,25.70
2018-05-06T07:42:52.356Z,25.60
2018-05-06T07:47:55.632Z,26.10
2018-05-06T07:52:58.934Z,26.40
2018-05-06T07:58:02.208Z,26.40
2018-05-06T08:03:06.616Z,26.80
2018-05-06T08:08:09.902Z,27.50
2018-05-06T08:13:13.252Z,28.20
2018-05-06T08:18:16.480Z,27.10
2018-05-06T08:23:19.764Z,28.40
2018-05-06T08:28:23.817Z,28.60
2018-05-06T08:33:27.109Z,28.40
2018-05-06T08:38:30.383Z,28.30
2018-05-06T08:43:34.439Z,28.60
2018-05-06T08:48:38.471Z,29.00
2018-05-06T08:53:41.750Z,28.90
2018-05-06T08:58:45.040Z,30.10
2018-05-06T09:03:48.364Z,30.60
2018-05-06T09:08:51.648Z,31.10
2018-05-06T09:13:55.612Z,31.00
2018-05-06T09:18:58.895Z,30.90
2018-05-06T09:24:02.183Z,31.00
2018-05-06T09:29:05.463Z,32.00
2018-05-06T09:34:08.756Z,32.20
2018-05-06T09:39:12.787Z,33.20
2018-05-06T09:44:16.072Z,33.10
2018-05-06T09:49:19.352Z,31.80
2018-05-06T09:54:22.660Z,33.10
2018-05-06T09:59:25.975Z,34.10
2018-05-06T10:04:29.219Z,34.10
2018-05-06T10:09:33.279Z,32.00
2018-05-06T10:14:36.567Z,31.80
2018-05-06T10:19:40.594Z,33.80
2018-05-06T10:24:44.613Z,33.60
2018-05-06T10:29:47.871Z,33.50
2018-05-06T10:34:51.144Z,35.00
2018-05-06T10:39:55.171Z,34.10
2018-05-06T10:44:58.434Z,34.00
2018-05-06T10:50:03.228Z,35.40
2018-05-06T10:55:06.499Z,35.40
2018-05-06T11:00:09.786Z,35.20
2018-05-06T11:05:13.080Z,34.30
2018-05-06T11:10:16.430Z,35.60
2018-05-06T11:15:19.643Z,35.60
2018-05-06T11:20:23.679Z,35.70
2018-05-06T11:25:27.732Z,36.10
2018-05-06T11:30:31.073Z,36.00
2018-05-06T11:35:34.355Z,36.00
2018-05-06T11:40:37.643Z,35.60
2018-05-06T11:45:41.680Z,37.20
2018-05-06T11:50:44.960Z,37.20
2018-05-06T11:55:48.231Z,37.60
2018-05-06T12:00:51.503Z,37.50
2018-05-06T12:05:54.980Z,36.60
2018-05-06T12:10:59.071Z,37.80
2018-05-06T12:16:02.365Z,37.70
2018-05-06T12:21:05.635Z,37.30
2018-05-06T12:26:09.669Z,38.00
2018-05-06T12:31:12.990Z,37.90
2018-05-06T12:36:16.288Z,37.90
2018-05-06T12:41:19.529Z,37.30
2018-05-06T12:46:22.831Z,37.40
2018-05-06T12:51:26.119Z,37.20
2018-05-06T12:56:29.419Z,37.20
2018-05-06T13:01:32.688Z,35.60
2018-05-06T13:06:36.159Z,37.30
2018-05-06T13:11:39.455Z,38.40
2018-05-06T13:16:43.515Z,36.70
2018-05-06T13:21:46.794Z,36.70
2018-05-06T13:26:50.076Z,37.10
2018-05-06T13:31:53.347Z,37.70
2018-05-06T13:36:56.642Z,38.40
2018-05-06T13:41:59.887Z,37.60
2018-05-06T13:47:03.169Z,36.90
2018-05-06T13:52:06.415Z,36.10
2018-05-06T13:57:09.700Z,35.80
2018-05-06T14:02:12.971Z,35.90
2018-05-06T14:07:16.309Z,36.20
2018-05-06T14:12:19.586Z,37.00
2018-05-06T14:17:22.881Z,36.50
2018-05-06T14:22:26.913Z,36.00
2018-05-06T14:27:30.174Z,36.00
2018-05-06T14:32:33.463Z,36.10
2018-05-06T14:37:36.736Z,35.70
2018-05-06T14:42:40.747Z,34.70
2018-05-06T14:47:55.795Z,34.70
2018-05-06T14:52:59.830Z,33.70
2018-05-06T14:58:03.119Z,33.60
2018-05-06T15:03:06.365Z,33.70
2018-05-06T15:08:10.098Z,33.40
2018-05-06T15:13:14.128Z,33.30
2018-05-06T15:18:17.407Z,33.00
2018-05-06T15:23:20.684Z,33.10
2018-05-06T15:28:23.961Z,33.40
2018-05-06T15:33:27.240Z,32.10
2018-05-06T15:38:30.543Z,32.30
2018-05-06T15:43:33.827Z,31.30
2018-05-06T15:48:37.084Z,31.20
2018-05-06T15:53:40.375Z,31.60
2018-05-06T15:58:43.660Z,31.00
2018-05-06T16:03:58.614Z,30.70
2018-05-06T16:09:01.912Z,31.80
2018-05-06T16:14:05.192Z,32.20
2018-05-06T16:19:08.469Z,31.70
2018-05-06T16:24:11.763Z,31.30
2018-05-06T16:29:15.043Z,30.70
2018-05-06T16:34:18.350Z,31.10
2018-05-06T16:39:21.617Z,30.30
2018-05-06T16:44:24.993Z,29.00
2018-05-06T16:49:28.284Z,27.80
2018-05-06T16:54:31.564Z,27.20
2018-05-06T16:59:35.603Z,26.20
2018-05-06T17:04:39.756Z,26.10
2018-05-06T17:09:43.048Z,26.10
2018-05-06T17:14:46.302Z,26.40
2018-05-06T17:19:49.574Z,25.90
2018-05-06T17:24:52.845Z,26.20
2018-05-06T17:29:56.116Z,26.10
2018-05-06T17:34:59.395Z,25.60
2018-05-06T17:40:02.670Z,25.10
2018-05-06T17:45:05.964Z,25.00
2018-05-06T17:50:09.352Z,25.30
2018-05-06T17:55:12.592Z,25.30
2018-05-06T18:00:15.869Z,25.30
2018-05-06T18:05:19.135Z,24.90
2018-05-06T18:10:23.183Z,24.30
2018-05-06T18:15:26.443Z,24.20
2018-05-06T18:20:29.695Z,24.20
2018-05-06T18:25:33.118Z,24.00
2018-05-06T18:30:36.439Z,24.00
2018-05-06T18:35:39.726Z,23.80
2018-05-06T18:40:43.000Z,23.60
2018-05-06T18:45:47.048Z,23.30
2018-05-06T18:50:50.305Z,23.20
2018-05-06T18:55:53.551Z,23.20
2018-05-06T19:00:56.830Z,23.00
2018-05-06T19:06:00.206Z,23.00
2018-05-06T19:11:03.567Z,22.70
2018-05-06T19:16:06.832Z,22.70
2018-05-06T19:21:10.124Z,22.40
2018-05-06T19:26:13.459Z,22.20
2018-05-06T19:31:16.723Z,22.00
2018-05-06T19:36:20.045Z,21.90
2018-05-06T19:41:23.311Z,21.80
2018-05-06T19:46:26.571Z,21.60
2018-05-06T19:51:29.871Z,21.50
2018-05-06T19:56:33.303Z,21.70
2018-05-06T20:01:36.503Z,21.40
2018-05-06T20:06:39.776Z,21.50
2018-05-06T20:11:43.079Z,21.40
2018-05-06T20:16:46.395Z,21.30
2018-05-06T20:21:49.729Z,21.20
2018-05-06T20:26:52.936Z,21.10
2018-05-06T20:31:56.270Z,21.20
2018-05-06T20:37:00.375Z,21.00
2018-05-06T20:42:03.611Z,21.00
2018-05-06T20:47:06.977Z,20.80
2018-05-06T20:52:10.236Z,20.80
2018-05-06T20:57:13.578Z,20.70
2018-05-06T21:02:16.895Z,20.80
2018-05-06T21:07:22.150Z,21.00
2018-05-06T21:12:25.819Z,20.90
2018-05-06T21:17:29.852Z,20.60
2018-05-06T21:22:33.107Z,20.60
2018-05-06T21:27:36.380Z,20.90
2018-05-06T21:32:39.631Z,20.50
2018-05-06T21:37:43.646Z,20.20
2018-05-06T21:42:46.923Z,20.10
2018-05-06T21:47:50.231Z,20.40
2018-05-06T21:52:53.511Z,20.30
2018-05-06T21:57:56.740Z,20.30
2018-05-06T22:03:00.005Z,20.20
2018-05-06T22:08:03.276Z,19.90
2018-05-06T22:13:06.593Z,20.00
2018-05-06T22:18:09.851Z,20.30
2018-05-06T22:23:13.240Z,20.50
2018-05-06T22:28:16.461Z,19.60
2018-05-06T22:33:19.770Z,19.80
2018-05-06T22:38:23.019Z,20.10
2018-05-06T22:43:27.151Z,20.30
2018-05-06T22:48:31.187Z,19.00
2018-05-06T22:53:34.483Z,18.90
2018-05-06T22:58:37.735Z,18.80
2018-05-06T23:03:40.995Z,19.60
2018-05-06T23:08:44.248Z,19.20
2018-05-06T23:13:47.522Z,19.30
2018-05-06T23:18:50.823Z,19.40
2018-05-06T23:23:54.075Z,19.30
2018-05-06T23:28:57.350Z,18.90
2018-05-06T23:34:00.614Z,18.90
2018-05-06T23:39:03.888Z,19.20
2018-05-06T23:44:07.173Z,19.30
2018-05-06T23:49:10.431Z,19.50
2018-05-06T23:54:14.415Z,19.40
2018-05-06T23:59:17.684Z,19.30
